• Join FlightAware (Why Join?)
  • Login
  • US Flag 
10:39AM EST


 

Airport Tracker/Info


-or-


 

Live Flight TrackerFlight Track Log ✈ AAL1831 ✈ 01-May-2012 ✈ KMIA - KTPA

Flight Track Log - Related Links

Times and Time Zones

All times are in EDT time to prevent confusion due to time zone crossing. See the AAL1831 flight status page for this flight to view local times or setup timezone preferences in your user account.

Time Position Orientation Groundspeed Altitude Reporting Facility
EDT Latitude Longitude Course Direction KTS MPH feet Rate Location/Type
10:39PM 25.8203 -80.3114 120° Southeast  Level FlightAware Approximate
10:39PM 25.7983 -80.2697 80° East 136 157 700  Level Miami Center
10:40PM 25.8056 -80.2239 53° Northeast 169 194 2,200 1,800 Climbing Miami Center
10:41PM 25.8381 -80.1764 334° Northwest 240 276 4,300 2,040 Climbing Miami Center
10:42PM 25.8917 -80.2056 307° West 283 326 5,900 2,400 Climbing Miami Center
10:43PM 25.9461 -80.2856 306° West 300 345 8,600 2,520 Climbing Miami Center
10:44PM 25.9925 -80.3564 309° West 311 358 11,000 2,880 Climbing Miami Center
10:45PM 26.0511 -80.4367 306° West 323 372 14,300 3,120 Climbing Miami Center
10:46PM 26.1036 -80.5169 309° West 339 390 17,300 2,700 Climbing Miami Center
10:47PM 26.1661 -80.6019 307° West 350 403 19,700 2,400 Climbing Miami Center
10:48PM 26.2286 -80.6944 306° West 360 414 22,100 2,100 Climbing Miami Center
10:49PM 26.2967 -80.7983 307° West 384 442 24,000 960 Climbing Miami Center
10:50PM 26.3608 -80.8933 308° West 389 448 24,000  Level Miami Center
10:51PM 26.4211 -80.9789 314° West 389 448 24,000  Level Miami Center
10:52PM 26.5019 -81.0722 323° Northwest 384 442 24,000  Level Miami Center
10:53PM 26.5897 -81.1472 317° Northwest 384 442 24,000  Level Miami Center
10:54PM 26.6686 -81.2292 318° Northwest 389 448 24,000  Level Miami Center
10:55PM 26.7497 -81.3114 318° Northwest 389 448 24,000  Level Miami Center
10:56PM 26.8225 -81.3861 314° West 384 442 24,000  Level Miami Center
10:57PM 26.8969 -81.4728 313° West 384 442 24,000 -480 Level Miami Center
10:58PM 26.9775 -81.5692 314° West 392 451 23,100 -1,020 Descending Miami Center
10:59PM 27.0519 -81.6561 314° West 382 440 22,000 -1,620 Descending Miami Center
11:00PM 27.1222 -81.7383 311° West 377 434 19,900 -2,100 Descending Miami Center
11:01PM 27.1922 -81.8278 315° West 377 434 17,800 -2,160 Descending Miami Center
11:02PM 27.2644 -81.9103 313° West 377 434 15,700 -2,160 Descending Miami Center
11:03PM 27.3344 -81.9950 313° West 377 434 13,600 -2,100 Descending Miami Center
11:04PM 27.4006 -82.0753 314° West 370 426 11,600 -1,380 Descending Miami Center
11:05PM 27.4664 -82.1531 313° West 356 410 10,900 -360 Descending Miami Center
11:06PM 27.5244 -82.2236 314° West 328 377 10,900  Level Miami Center
11:07PM 27.5825 -82.2919 313° West 300 345 10,900 -660 Level Miami Center
11:08PM 27.6383 -82.3600 318° Northwest 300 345 9,600 -1,320 Descending Miami Center
11:09PM 27.6964 -82.4192 North 300 345 8,400 -1,140 Descending Miami Center
11:10PM 27.7833 -82.4167 360° North 269 310 7,400 -1,140 Descending Tampa TRACON
11:11PM 27.8500 -82.4167 360° North 248 285 6,100 -1,320 Descending Tampa TRACON
11:12PM 27.9000 -82.4167 360° North 240 276 5,000 -1,080 Descending Tampa TRACON
11:13PM 27.9667 -82.4167 360° North 229 264 4,100 -1,020 Descending Tampa TRACON
11:14PM 28.0333 -82.4167 307° West 226 260 3,000 -960 Descending Tampa TRACON
11:15PM 28.0667 -82.4667 307° West 198 228 2,300 -780 Descending Tampa TRACON